Time;durP1;ratioP1;P1;durP2;ratioP2;P2;SDS_P1;SDS_P2;PMS_P1;PMS_P2;Temp;Humidity;BMP_temperature;BMP_pressure;BME280_temperature;BME280_humidity;BME280_pressure;Samples;Min_cycle;Max_cycle;Signal;HPM_P1;HPM_P2
2021/01/04 00:00:35;;;;;;;19.50;17.40;;;;;;;;;;5079068;28;20377;-92
2021/01/04 00:03:01;;;;;;;20.38;18.25;;;;;;;;;;5037229;28;20430;-90
2021/01/04 00:05:36;;;;;;;20.30;18.20;;;;;;;;;;5044739;28;20856;-90
2021/01/04 00:08:05;;;;;;;17.55;15.75;;;;;;;;;;5076648;28;20535;-90
2021/01/04 00:10:31;;;;;;;19.40;17.30;;;;;;;;;;5058740;28;20449;-89
2021/01/04 00:13:00;;;;;;;19.33;17.25;;;;;;;;;;5077088;28;20433;-90
2021/01/04 00:15:27;;;;;;;17.33;15.25;;;;;;;;;;5063806;28;20373;-89
2021/01/04 00:18:11;;;;;;;19.30;17.23;;;;;;;;;;5079217;28;20425;-89
2021/01/04 00:20:50;;;;;;;19.63;16.90;;;;;;;;;;5078910;28;20365;-89
2021/01/04 00:23:25;;;;;;;18.90;16.67;;;;;;;;;;5038371;28;20368;-92
2021/01/04 00:25:56;;;;;;;19.75;17.80;;;;;;;;;;5039028;28;20376;-89
2021/01/04 00:28:23;;;;;;;17.67;15.77;;;;;;;;;;5045022;28;20387;-90
2021/01/04 00:30:52;;;;;;;17.75;15.85;;;;;;;;;;5047129;28;20454;-88
2021/01/04 00:33:21;;;;;;;17.90;16.00;;;;;;;;;;5057438;28;20366;-89
2021/01/04 00:35:52;;;;;;;16.10;14.50;;;;;;;;;;5057556;28;20460;-90
2021/01/04 00:38:25;;;;;;;17.00;15.23;;;;;;;;;;5057664;28;20871;-91
2021/01/04 00:40:54;;;;;;;16.70;15.00;;;;;;;;;;5057541;28;20375;-89
2021/01/04 00:43:27;;;;;;;17.20;15.40;;;;;;;;;;5095220;28;20373;-88
2021/01/04 00:45:53;;;;;;;15.68;14.07;;;;;;;;;;5067956;28;20725;-89
2021/01/04 00:48:29;;;;;;;16.33;14.63;;;;;;;;;;5057315;28;20860;-90
2021/01/04 00:50:54;;;;;;;15.10;13.55;;;;;;;;;;5074763;28;20427;-90
2021/01/04 00:53:38;;;;;;;15.45;13.88;;;;;;;;;;5056893;28;20445;-90
2021/01/04 00:56:17;;;;;;;14.48;13.05;;;;;;;;;;5057051;28;20377;-88
2021/01/04 00:59:03;;;;;;;13.65;12.25;;;;;;;;;;5057271;28;20362;-89
2021/01/04 01:01:29;;;;;;;15.30;13.63;;;;;;;;;;5027142;28;20366;-90
2021/01/04 01:04:04;;;;;;;13.80;12.40;;;;;;;;;;5073758;28;20497;-89
2021/01/04 01:06:39;;;;;;;13.75;12.35;;;;;;;;;;5076858;28;20457;-87
2021/01/04 01:09:07;;;;;;;13.10;11.80;;;;;;;;;;5076494;28;20926;-89
2021/01/04 01:11:52;;;;;;;13.52;12.23;;;;;;;;;;5095235;28;20415;-90
2021/01/04 01:14:28;;;;;;;13.18;11.88;;;;;;;;;;5077122;28;20422;-89
2021/01/04 01:17:09;;;;;;;12.98;11.73;;;;;;;;;;5077033;28;20380;-88
2021/01/04 01:19:49;;;;;;;13.57;12.18;;;;;;;;;;5076976;28;20463;-88
2021/01/04 01:22:20;;;;;;;12.77;11.48;;;;;;;;;;5055854;28;20378;-87
2021/01/04 01:24:46;;;;;;;13.48;12.10;;;;;;;;;;5074637;28;20884;-87
2021/01/04 01:27:24;;;;;;;13.00;11.63;;;;;;;;;;5076614;28;20377;-89
2021/01/04 01:30:06;;;;;;;13.85;12.50;;;;;;;;;;5076872;28;20407;-93
2021/01/04 01:32:50;;;;;;;12.10;10.90;;;;;;;;;;5097341;28;20368;-87
2021/01/04 01:35:30;;;;;;;13.60;12.20;;;;;;;;;;5099608;28;20364;-88
2021/01/04 01:38:15;;;;;;;12.95;11.65;;;;;;;;;;5066359;28;20376;-90
2021/01/04 01:41:00;;;;;;;12.10;10.90;;;;;;;;;;5085981;28;20362;-87
2021/01/04 01:43:30;;;;;;;12.40;11.18;;;;;;;;;;5059147;28;20371;-86
2021/01/04 01:46:07;;;;;;;11.77;10.68;;;;;;;;;;5068124;28;20381;-89
2021/01/04 01:48:40;;;;;;;13.77;12.27;;;;;;;;;;5077073;28;20429;-88
2021/01/04 01:51:28;;;;;;;12.75;11.45;;;;;;;;;;5067546;28;20374;-89
2021/01/04 01:53:54;;;;;;;12.77;11.48;;;;;;;;;;5076260;28;20456;-88
2021/01/04 01:56:23;;;;;;;12.13;10.93;;;;;;;;;;5062879;28;20794;-89
2021/01/04 01:59:05;;;;;;;11.90;10.70;;;;;;;;;;5059951;28;20400;-89
2021/01/04 02:01:34;;;;;;;13.45;12.05;;;;;;;;;;5057476;28;20366;-91
2021/01/04 02:04:04;;;;;;;12.93;11.52;;;;;;;;;;5074308;28;20365;-89
2021/01/04 02:06:49;;;;;;;12.32;11.13;;;;;;;;;;5075597;28;20398;-89
2021/01/04 02:09:16;;;;;;;12.18;10.98;;;;;;;;;;5091706;28;20384;-89
2021/01/04 02:11:52;;;;;;;12.23;11.02;;;;;;;;;;5094237;28;20375;-90
2021/01/04 02:14:40;;;;;;;12.75;11.45;;;;;;;;;;5076145;28;20364;-90
2021/01/04 02:17:06;;;;;;;11.90;10.70;;;;;;;;;;5056955;28;20883;-89
2021/01/04 02:19:38;;;;;;;12.43;11.13;;;;;;;;;;5055668;28;20374;-92
2021/01/04 02:22:22;;;;;;;12.63;11.32;;;;;;;;;;5056542;28;20406;-88
2021/01/04 02:24:48;;;;;;;11.90;10.73;;;;;;;;;;5056591;28;20404;-89
2021/01/04 02:27:18;;;;;;;11.35;10.25;;;;;;;;;;5067652;28;20469;-88
2021/01/04 02:29:44;;;;;;;12.63;11.32;;;;;;;;;;5093343;28;20486;-88
2021/01/04 02:32:10;;;;;;;12.05;10.85;;;;;;;;;;5076056;28;20359;-88
2021/01/04 02:34:44;;;;;;;11.27;10.18;;;;;;;;;;5094494;28;20364;-89
2021/01/04 02:37:11;;;;;;;11.13;10.13;;;;;;;;;;5056518;28;20461;-89
2021/01/04 02:39:37;;;;;;;12.05;10.85;;;;;;;;;;5073672;28;20370;-90
2021/01/04 02:42:03;;;;;;;12.27;11.07;;;;;;;;;;5055650;28;20369;-90
2021/01/04 02:44:32;;;;;;;11.25;10.25;;;;;;;;;;5073574;28;21168;-91
2021/01/04 02:47:16;;;;;;;12.27;11.07;;;;;;;;;;5092368;28;20388;-90
2021/01/04 02:49:51;;;;;;;12.65;11.30;;;;;;;;;;5076397;28;20376;-90
2021/01/04 02:52:22;;;;;;;11.80;10.70;;;;;;;;;;5036585;28;20368;-90
2021/01/04 02:54:51;;;;;;;12.65;11.35;;;;;;;;;;5036518;28;20916;-91
2021/01/04 02:57:29;;;;;;;11.88;10.75;;;;;;;;;;5073799;28;20831;-90
2021/01/04 02:59:57;;;;;;;12.23;11.03;;;;;;;;;;5076246;28;20408;-90
2021/01/04 03:02:52;;;;;;;12.48;11.27;;;;;;;;;;5056882;28;20879;-91
2021/01/04 03:05:21;;;;;;;12.45;11.25;;;;;;;;;;5054172;28;20384;-90
2021/01/04 03:07:52;;;;;;;12.23;11.13;;;;;;;;;;5057354;28;20406;-88
2021/01/04 03:10:24;;;;;;;12.55;11.30;;;;;;;;;;5066577;28;20766;-89
2021/01/04 03:12:55;;;;;;;11.73;10.55;;;;;;;;;;5083390;28;20389;-89
2021/01/04 03:15:21;;;;;;;12.45;11.20;;;;;;;;;;5056121;28;20371;-88
2021/01/04 03:18:10;;;;;;;12.20;11.00;;;;;;;;;;5055058;28;20920;-87
2021/01/04 03:20:36;;;;;;;11.38;10.27;;;;;;;;;;5061565;28;20415;-89
2021/01/04 03:23:03;;;;;;;12.50;11.20;;;;;;;;;;5092584;28;20410;-91
2021/01/04 03:25:29;;;;;;;11.52;10.45;;;;;;;;;;5092842;28;20435;-90
2021/01/04 03:27:55;;;;;;;12.15;10.95;;;;;;;;;;5075051;28;20471;-91
2021/01/04 03:30:21;;;;;;;11.85;10.70;;;;;;;;;;5068914;28;20373;-89
2021/01/04 03:32:47;;;;;;;12.30;11.10;;;;;;;;;;5054966;28;20373;-89
2021/01/04 03:35:13;;;;;;;11.43;10.32;;;;;;;;;;5054937;28;20368;-88
2021/01/04 03:37:39;;;;;;;11.65;10.55;;;;;;;;;;5054854;28;20378;-91
2021/01/04 03:40:06;;;;;;;11.90;10.80;;;;;;;;;;5054372;28;20370;-90
2021/01/04 03:42:32;;;;;;;11.83;10.63;;;;;;;;;;5055034;28;20922;-88
2021/01/04 03:44:58;;;;;;;11.38;10.27;;;;;;;;;;5072653;28;20358;-91
2021/01/04 03:47:24;;;;;;;11.73;10.55;;;;;;;;;;5054526;28;20418;-90
2021/01/04 03:49:50;;;;;;;11.13;10.13;;;;;;;;;;5055116;28;20902;-90
2021/01/04 03:52:16;;;;;;;11.88;10.68;;;;;;;;;;5072478;28;20389;-87
2021/01/04 03:54:43;;;;;;;11.90;10.70;;;;;;;;;;5054828;28;20445;-87
2021/01/04 03:57:09;;;;;;;11.18;10.07;;;;;;;;;;5054700;28;20374;-87
2021/01/04 03:59:36;;;;;;;12.90;11.60;;;;;;;;;;5055340;28;20362;-89
2021/01/04 04:02:02;;;;;;;12.37;11.17;;;;;;;;;;5074762;28;20356;-87
2021/01/04 04:04:28;;;;;;;11.32;10.23;;;;;;;;;;5078560;28;20364;-89
2021/01/04 04:06:54;;;;;;;11.52;10.43;;;;;;;;;;5096267;28;20533;-89
2021/01/04 04:09:21;;;;;;;11.75;10.65;;;;;;;;;;5078153;28;20363;-90
2021/01/04 04:11:48;;;;;;;11.45;10.45;;;;;;;;;;5061204;28;20382;-89
2021/01/04 04:14:14;;;;;;;11.77;10.68;;;;;;;;;;5058449;28;20370;-90
2021/01/04 04:16:41;;;;;;;11.75;10.65;;;;;;;;;;5072965;28;20839;-90
2021/01/04 04:19:07;;;;;;;11.27;10.17;;;;;;;;;;5078381;28;20443;-90
2021/01/04 04:21:34;;;;;;;11.88;10.70;;;;;;;;;;5066034;28;20370;-87
2021/01/04 04:24:00;;;;;;;12.70;11.50;;;;;;;;;;5057894;28;20379;-90
2021/01/04 04:26:27;;;;;;;12.32;11.07;;;;;;;;;;5078513;28;20396;-89
2021/01/04 04:28:53;;;;;;;12.00;10.80;;;;;;;;;;5096328;28;20457;-89
2021/01/04 04:31:20;;;;;;;12.02;10.82;;;;;;;;;;5057979;28;20419;-89
2021/01/04 04:33:46;;;;;;;11.73;10.63;;;;;;;;;;5058004;28;20389;-91
2021/01/04 04:36:33;;;;;;;12.50;11.25;;;;;;;;;;5058559;28;20423;-88
2021/01/04 04:38:59;;;;;;;12.05;10.90;;;;;;;;;;5057846;28;20409;-91
2021/01/04 04:41:34;;;;;;;12.07;10.97;;;;;;;;;;5058153;28;20366;-88
2021/01/04 04:44:06;;;;;;;12.07;10.88;;;;;;;;;;5058977;28;20423;-90
2021/01/04 04:46:47;;;;;;;11.82;10.73;;;;;;;;;;5088654;28;20476;-91
2021/01/04 04:49:33;;;;;;;12.43;11.23;;;;;;;;;;5078503;28;20375;-90
2021/01/04 04:52:02;;;;;;;12.30;11.13;;;;;;;;;;5026159;28;20368;-91
2021/01/04 04:54:28;;;;;;;12.80;11.50;;;;;;;;;;5058643;28;20364;-91
2021/01/04 04:57:00;;;;;;;13.50;12.23;;;;;;;;;;5063326;28;20476;-91
2021/01/04 04:59:35;;;;;;;12.50;11.23;;;;;;;;;;5041207;28;20365;-90
2021/01/04 05:02:04;;;;;;;12.40;11.20;;;;;;;;;;5066884;28;20377;-91
2021/01/04 05:04:37;;;;;;;12.13;10.93;;;;;;;;;;5080523;28;20361;-90
2021/01/04 05:07:05;;;;;;;13.53;12.13;;;;;;;;;;5077352;28;20453;-89
2021/01/04 05:09:37;;;;;;;12.95;11.70;;;;;;;;;;5080600;28;20464;-90
2021/01/04 05:12:07;;;;;;;13.07;11.77;;;;;;;;;;5087944;28;20748;-88
2021/01/04 05:14:35;;;;;;;12.93;11.68;;;;;;;;;;5058044;28;20370;-90
2021/01/04 05:17:19;;;;;;;13.18;11.98;;;;;;;;;;5057513;28;20853;-88
2021/01/04 05:20:09;;;;;;;13.48;12.27;;;;;;;;;;5057471;28;20382;-90
2021/01/04 05:22:54;;;;;;;14.40;13.05;;;;;;;;;;5038139;28;20421;-90
2021/01/04 05:25:40;;;;;;;14.15;12.82;;;;;;;;;;5039819;28;20402;-89
2021/01/04 05:28:09;;;;;;;14.52;13.15;;;;;;;;;;5037758;28;20904;-91
2021/01/04 05:30:37;;;;;;;12.90;11.70;;;;;;;;;;5062418;28;20376;-89
2021/01/04 05:33:15;;;;;;;13.45;12.15;;;;;;;;;;5068218;28;20721;-90
2021/01/04 05:35:43;;;;;;;14.40;13.00;;;;;;;;;;5057747;28;20475;-88
2021/01/04 05:38:26;;;;;;;13.88;12.52;;;;;;;;;;5075151;28;20366;-89
2021/01/04 05:41:02;;;;;;;13.52;12.15;;;;;;;;;;5058149;28;20887;-90
2021/01/04 05:43:43;;;;;;;14.27;12.98;;;;;;;;;;5057534;28;20370;-89
2021/01/04 05:46:09;;;;;;;12.88;11.65;;;;;;;;;;5065307;28;20455;-90
2021/01/04 05:48:41;;;;;;;13.43;12.13;;;;;;;;;;5080038;28;20829;-89
2021/01/04 05:51:25;;;;;;;14.65;13.15;;;;;;;;;;5066337;28;20714;-91
2021/01/04 05:53:51;;;;;;;13.70;12.40;;;;;;;;;;5058564;28;20370;-91
2021/01/04 05:56:35;;;;;;;14.33;12.93;;;;;;;;;;5060335;28;20421;-91
2021/01/04 05:59:09;;;;;;;13.48;12.18;;;;;;;;;;5048016;28;20388;-90
2021/01/04 06:01:36;;;;;;;14.20;12.80;;;;;;;;;;5036573;28;20387;-91
2021/01/04 06:04:10;;;;;;;14.13;12.75;;;;;;;;;;5037176;28;20364;-90
2021/01/04 06:06:36;;;;;;;13.77;12.48;;;;;;;;;;5036974;28;20493;-89
2021/01/04 06:09:07;;;;;;;13.98;12.57;;;;;;;;;;5040267;28;20402;-92
2021/01/04 06:11:35;;;;;;;14.32;12.82;;;;;;;;;;5070205;28;23718;-91
2021/01/04 06:14:13;;;;;;;16.30;14.70;;;;;;;;;;5060674;28;20447;-91
2021/01/04 06:16:45;;;;;;;14.52;13.13;;;;;;;;;;5073761;28;20384;-91
2021/01/04 06:19:12;;;;;;;15.35;13.80;;;;;;;;;;5076300;28;20422;-91
2021/01/04 06:21:59;;;;;;;15.67;14.07;;;;;;;;;;5069724;28;20376;-90
2021/01/04 06:24:31;;;;;;;14.52;13.13;;;;;;;;;;5076075;28;20361;-91
2021/01/04 06:27:22;;;;;;;15.05;13.55;;;;;;;;;;5074598;28;20392;-91
2021/01/04 06:29:49;;;;;;;15.48;13.98;;;;;;;;;;5074076;28;20384;-91
2021/01/04 06:32:21;;;;;;;15.05;13.65;;;;;;;;;;5040909;28;20808;-91
2021/01/04 06:35:03;;;;;;;15.43;13.90;;;;;;;;;;5054086;28;20380;-90
2021/01/04 06:37:32;;;;;;;17.42;15.57;;;;;;;;;;5038493;28;20392;-90
2021/01/04 06:40:04;;;;;;;17.35;15.55;;;;;;;;;;5037791;28;20391;-90
2021/01/04 06:42:35;;;;;;;16.52;14.85;;;;;;;;;;5063832;28;20375;-90
2021/01/04 06:45:10;;;;;;;16.05;14.40;;;;;;;;;;5061531;28;20356;-91
2021/01/04 06:47:47;;;;;;;16.67;14.98;;;;;;;;;;5087976;28;20400;-91
2021/01/04 06:50:23;;;;;;;16.80;15.10;;;;;;;;;;5074906;28;20882;-89
2021/01/04 06:52:55;;;;;;;17.07;15.37;;;;;;;;;;5048498;28;20471;-87
2021/01/04 06:55:42;;;;;;;15.65;14.10;;;;;;;;;;5059257;28;20388;-89
2021/01/04 06:58:08;;;;;;;17.10;15.40;;;;;;;;;;5039872;28;20404;-85
2021/01/04 07:00:52;;;;;;;16.70;15.02;;;;;;;;;;5056826;28;20387;-86
2021/01/04 07:03:37;;;;;;;17.20;15.45;;;;;;;;;;5053333;28;20417;-88
2021/01/04 07:06:21;;;;;;;16.25;14.65;;;;;;;;;;5034459;28;20379;-83
2021/01/04 07:08:57;;;;;;;16.70;15.00;;;;;;;;;;5044643;28;20382;-84
2021/01/04 07:11:44;;;;;;;17.38;15.57;;;;;;;;;;5078634;28;20757;-82
2021/01/04 07:14:33;;;;;;;17.00;15.23;;;;;;;;;;5073894;28;20364;-81
2021/01/04 07:17:14;;;;;;;17.55;15.70;;;;;;;;;;5089302;28;20477;-82
2021/01/04 07:19:49;;;;;;;17.10;15.30;;;;;;;;;;5054230;28;20866;-83
2021/01/04 07:22:15;;;;;;;18.25;16.13;;;;;;;;;;5057141;28;20369;-82
2021/01/04 07:24:47;;;;;;;17.65;15.82;;;;;;;;;;5074154;28;20873;-82
2021/01/04 07:27:22;;;;;;;17.17;15.38;;;;;;;;;;5045891;28;20443;-81
2021/01/04 07:29:54;;;;;;;17.27;15.43;;;;;;;;;;5053530;28;20506;-84
2021/01/04 07:32:39;;;;;;;17.13;15.45;;;;;;;;;;5050550;28;20372;-80
2021/01/04 07:35:09;;;;;;;17.10;15.40;;;;;;;;;;5055360;28;20380;-81
2021/01/04 07:37:35;;;;;;;17.42;15.65;;;;;;;;;;5083175;28;20392;-82
2021/01/04 07:40:33;;;;;;;17.58;15.68;;;;;;;;;;5075986;28;20854;-86
2021/01/04 07:43:18;;;;;;;17.95;16.15;;;;;;;;;;5038390;28;20434;-84
2021/01/04 07:46:09;;;;;;;18.23;16.42;;;;;;;;;;5046138;28;20427;-83
2021/01/04 07:49:06;;;;;;;17.80;15.98;;;;;;;;;;5055636;28;20392;-85
2021/01/04 07:51:50;;;;;;;18.77;16.23;;;;;;;;;;5085168;28;20420;-84
2021/01/04 07:54:19;;;;;;;16.77;15.07;;;;;;;;;;5059297;28;20370;-85
2021/01/04 07:57:04;;;;;;;17.65;15.85;;;;;;;;;;5068221;28;20419;-86
2021/01/04 07:59:33;;;;;;;17.23;15.48;;;;;;;;;;5057184;28;20721;-80
2021/01/04 08:02:05;;;;;;;18.48;16.58;;;;;;;;;;5057447;28;20393;-80
2021/01/04 08:04:50;;;;;;;17.70;15.85;;;;;;;;;;5056590;28;20366;-86
2021/01/04 08:07:43;;;;;;;17.80;16.00;;;;;;;;;;5044832;28;20391;-87
2021/01/04 08:10:17;;;;;;;17.88;15.98;;;;;;;;;;5048764;28;20378;-87
2021/01/04 08:12:55;;;;;;;16.77;15.07;;;;;;;;;;5057727;28;20412;-87
2021/01/04 08:15:27;;;;;;;17.95;15.75;;;;;;;;;;5065969;28;20380;-89
2021/01/04 08:18:01;;;;;;;17.38;15.57;;;;;;;;;;5088013;28;20375;-89
2021/01/04 08:20:27;;;;;;;16.98;15.27;;;;;;;;;;5066273;28;20374;-88
2021/01/04 08:23:02;;;;;;;17.90;16.10;;;;;;;;;;5061735;28;20385;-88
2021/01/04 08:25:44;;;;;;;17.85;16.00;;;;;;;;;;5062347;28;20380;-86
2021/01/04 08:28:16;;;;;;;17.13;15.43;;;;;;;;;;5081437;28;20388;-86
2021/01/04 08:30:52;;;;;;;17.00;15.30;;;;;;;;;;5081978;28;20370;-89
2021/01/04 08:33:53;;;;;;;16.17;14.48;;;;;;;;;;5054857;28;20376;-88
2021/01/04 08:36:28;;;;;;;16.92;15.13;;;;;;;;;;4963990;28;20389;-87
2021/01/04 08:39:24;;;;;;;16.55;14.82;;;;;;;;;;5061580;28;20394;-87
2021/01/04 08:42:04;;;;;;;15.98;14.38;;;;;;;;;;5052021;28;20365;-87
2021/01/04 08:44:35;;;;;;;15.40;13.80;;;;;;;;;;5061950;28;20902;-87
2021/01/04 08:47:15;;;;;;;17.02;15.32;;;;;;;;;;5056939;28;20398;-87
2021/01/04 08:49:42;;;;;;;15.20;13.60;;;;;;;;;;5049193;28;20383;-87
2021/01/04 08:52:16;;;;;;;15.75;14.25;;;;;;;;;;5048721;28;20370;-87
2021/01/04 08:54:42;;;;;;;15.75;14.15;;;;;;;;;;5056769;28;20971;-87
2021/01/04 08:57:19;;;;;;;14.55;13.15;;;;;;;;;;5057281;28;20397;-87
2021/01/04 09:00:12;;;;;;;14.02;12.63;;;;;;;;;;5056286;28;20377;-89
2021/01/04 09:02:42;;;;;;;16.77;15.00;;;;;;;;;;5058161;28;20381;-87
2021/01/04 09:05:13;;;;;;;14.53;13.13;;;;;;;;;;5056905;28;20408;-87
2021/01/04 09:07:53;;;;;;;15.13;13.70;;;;;;;;;;5056924;28;20953;-88
2021/01/04 09:10:26;;;;;;;15.20;13.73;;;;;;;;;;5056271;28;20779;-90
2021/01/04 09:12:54;;;;;;;16.27;14.73;;;;;;;;;;5046448;28;20420;-88
2021/01/04 09:15:20;;;;;;;15.70;14.10;;;;;;;;;;5047069;28;20382;-88
2021/01/04 09:17:49;;;;;;;15.18;13.70;;;;;;;;;;5071581;28;20378;-87
2021/01/04 09:20:18;;;;;;;17.13;15.43;;;;;;;;;;5055439;28;20372;-87
2021/01/04 09:22:45;;;;;;;16.13;14.63;;;;;;;;;;5049849;28;20444;-88
2021/01/04 09:25:46;;;;;;;14.30;12.90;;;;;;;;;;5042545;28;20372;-88
2021/01/04 09:28:16;;;;;;;15.00;13.57;;;;;;;;;;5039398;28;20452;-88
2021/01/04 09:30:43;;;;;;;16.42;14.73;;;;;;;;;;5048010;28;20378;-88
2021/01/04 09:33:14;;;;;;;15.55;14.05;;;;;;;;;;5056749;28;20382;-89
2021/01/04 09:35:43;;;;;;;15.13;13.73;;;;;;;;;;5056498;28;20374;-89
2021/01/04 09:38:14;;;;;;;16.35;14.77;;;;;;;;;;5056582;28;20378;-88
2021/01/04 09:40:47;;;;;;;16.58;14.88;;;;;;;;;;5054638;28;20402;-89
2021/01/04 09:43:13;;;;;;;14.68;13.27;;;;;;;;;;5056165;28;20947;-88
2021/01/04 09:45:40;;;;;;;14.90;13.50;;;;;;;;;;5056091;28;20370;-88
2021/01/04 09:48:14;;;;;;;16.15;14.55;;;;;;;;;;5065739;28;20475;-86
2021/01/04 09:51:00;;;;;;;14.95;13.40;;;;;;;;;;5063771;28;20444;-86
2021/01/04 09:53:34;;;;;;;14.90;13.52;;;;;;;;;;5041584;28;20374;-87
2021/01/04 09:56:02;;;;;;;15.13;13.52;;;;;;;;;;5056633;28;21631;-84
2021/01/04 09:58:28;;;;;;;15.00;13.60;;;;;;;;;;5054645;28;20771;-83
2021/01/04 10:01:08;;;;;;;15.00;13.60;;;;;;;;;;5054858;28;20366;-83
2021/01/04 10:03:34;;;;;;;15.68;14.18;;;;;;;;;;5042466;28;20391;-82
2021/01/04 10:06:00;;;;;;;15.80;14.25;;;;;;;;;;5046355;28;20450;-84
2021/01/04 10:08:28;;;;;;;14.77;13.38;;;;;;;;;;5054986;28;20436;-83
2021/01/04 10:11:04;;;;;;;13.55;12.30;;;;;;;;;;5059475;28;20374;-86
2021/01/04 10:13:32;;;;;;;14.55;13.15;;;;;;;;;;5045133;28;20384;-82
2021/01/04 10:16:02;;;;;;;14.53;13.13;;;;;;;;;;5066891;28;20374;-82
2021/01/04 10:18:34;;;;;;;13.60;12.20;;;;;;;;;;5073190;28;20369;-87
2021/01/04 10:21:00;;;;;;;13.97;12.67;;;;;;;;;;5073190;28;20455;-83
2021/01/04 10:23:38;;;;;;;13.32;12.00;;;;;;;;;;5073790;28;20382;-85
2021/01/04 10:26:09;;;;;;;13.82;12.43;;;;;;;;;;5073615;28;20375;-83
2021/01/04 10:28:40;;;;;;;12.98;11.77;;;;;;;;;;5049558;28;20746;-90
2021/01/04 10:31:09;;;;;;;13.32;12.02;;;;;;;;;;5072747;28;20476;-87
2021/01/04 10:33:37;;;;;;;14.52;13.05;;;;;;;;;;5073244;28;20385;-83
2021/01/04 10:36:18;;;;;;;14.18;12.77;;;;;;;;;;5078824;28;20851;-84
2021/01/04 10:38:46;;;;;;;14.57;13.18;;;;;;;;;;5072734;28;20373;-84
2021/01/04 10:41:14;;;;;;;14.90;13.40;;;;;;;;;;5039244;28;20383;-87
2021/01/04 10:43:42;;;;;;;13.95;12.63;;;;;;;;;;5053910;28;20721;-82
2021/01/04 10:46:16;;;;;;;15.52;14.00;;;;;;;;;;5055073;28;20771;-83
2021/01/04 10:48:55;;;;;;;14.30;12.90;;;;;;;;;;5055359;28;20440;-81
2021/01/04 10:51:23;;;;;;;13.88;12.57;;;;;;;;;;5072156;28;20371;-86
2021/01/04 10:53:49;;;;;;;15.25;13.75;;;;;;;;;;5073545;28;20453;-86
2021/01/04 10:56:15;;;;;;;14.40;13.00;;;;;;;;;;5059582;28;20398;-87
2021/01/04 10:58:47;;;;;;;15.37;13.73;;;;;;;;;;5073461;28;20373;-83
2021/01/04 11:01:23;;;;;;;14.70;13.27;;;;;;;;;;5080410;28;20368;-84
2021/01/04 11:03:53;;;;;;;15.27;13.73;;;;;;;;;;5047418;28;20421;-85
2021/01/04 11:06:31;;;;;;;15.18;13.63;;;;;;;;;;5056130;28;20384;-86
2021/01/04 11:08:58;;;;;;;14.97;13.47;;;;;;;;;;5094759;28;20839;-87
2021/01/04 11:11:35;;;;;;;15.17;13.57;;;;;;;;;;5086055;28;20413;-87
2021/01/04 11:14:21;;;;;;;16.27;14.57;;;;;;;;;;5082157;28;20829;-86
2021/01/04 11:16:52;;;;;;;16.35;14.75;;;;;;;;;;5068632;28;20726;-83
2021/01/04 11:19:29;;;;;;;16.23;14.52;;;;;;;;;;5078347;28;20404;-84
2021/01/04 11:21:55;;;;;;;15.90;14.30;;;;;;;;;;5078610;28;20431;-86
2021/01/04 11:24:21;;;;;;;17.13;15.32;;;;;;;;;;5061433;28;21156;-85
2021/01/04 11:26:47;;;;;;;15.73;14.13;;;;;;;;;;5078364;28;20443;-87
2021/01/04 11:29:14;;;;;;;16.83;14.98;;;;;;;;;;5060461;28;20392;-90
2021/01/04 11:31:41;;;;;;;15.73;14.02;;;;;;;;;;5079267;28;20366;-84
2021/01/04 11:34:07;;;;;;;17.83;15.23;;;;;;;;;;5061146;28;20366;-82
2021/01/04 11:36:33;;;;;;;16.85;15.05;;;;;;;;;;5078848;28;20861;-85
2021/01/04 11:38:59;;;;;;;18.30;16.25;;;;;;;;;;5060613;28;20370;-89
2021/01/04 11:41:26;;;;;;;16.50;14.80;;;;;;;;;;5075860;28;20377;-82
2021/01/04 11:43:52;;;;;;;17.10;15.35;;;;;;;;;;5062416;28;20709;-86
2021/01/04 11:46:19;;;;;;;17.03;15.27;;;;;;;;;;5066471;28;20367;-81
2021/01/04 11:48:45;;;;;;;19.02;16.98;;;;;;;;;;5080515;28;20364;-82
2021/01/04 11:51:15;;;;;;;17.80;15.90;;;;;;;;;;5087537;28;20963;-82
2021/01/04 11:53:41;;;;;;;17.95;15.52;;;;;;;;;;5080696;28;20358;-82
2021/01/04 11:56:07;;;;;;;18.60;16.70;;;;;;;;;;5087358;28;20854;-83
2021/01/04 11:58:39;;;;;;;19.07;16.87;;;;;;;;;;5098609;28;20395;-82
2021/01/04 12:01:05;;;;;;;17.63;15.73;;;;;;;;;;5092701;28;20402;-84
2021/01/04 12:03:31;;;;;;;17.75;15.95;;;;;;;;;;5097645;28;20380;-84
2021/01/04 12:05:57;;;;;;;18.17;16.25;;;;;;;;;;5071474;28;20397;-83
2021/01/04 12:08:23;;;;;;;19.83;17.70;;;;;;;;;;5089816;28;20963;-83
2021/01/04 12:10:49;;;;;;;19.02;17.02;;;;;;;;;;5078492;28;20375;-82
2021/01/04 12:13:17;;;;;;;19.55;17.40;;;;;;;;;;5077955;28;20736;-86
2021/01/04 12:15:43;;;;;;;18.40;16.40;;;;;;;;;;5063175;28;20416;-85
2021/01/04 12:18:09;;;;;;;18.92;16.92;;;;;;;;;;5061173;28;20378;-84
2021/01/04 12:20:35;;;;;;;19.13;17.15;;;;;;;;;;5061098;28;20409;-85
2021/01/04 12:23:01;;;;;;;18.40;16.20;;;;;;;;;;5067762;28;20369;-84
2021/01/04 12:25:27;;;;;;;17.60;15.75;;;;;;;;;;5075661;28;20471;-86
2021/01/04 12:27:56;;;;;;;21.10;16.73;;;;;;;;;;5082847;28;20746;-87
2021/01/04 12:30:22;;;;;;;19.13;16.93;;;;;;;;;;5072281;28;20418;-85
2021/01/04 12:32:48;;;;;;;17.60;15.70;;;;;;;;;;5060767;28;20374;-86
2021/01/04 12:35:14;;;;;;;18.35;16.35;;;;;;;;;;5076952;28;20362;-86
2021/01/04 12:37:40;;;;;;;19.57;17.47;;;;;;;;;;5081528;28;20435;-83
2021/01/04 12:40:18;;;;;;;19.15;17.02;;;;;;;;;;5073230;28;20532;-87
2021/01/04 12:42:44;;;;;;;20.92;17.27;;;;;;;;;;5086575;28;20732;-85
2021/01/04 12:45:10;;;;;;;19.17;16.45;;;;;;;;;;5074907;28;20377;-87
2021/01/04 12:47:36;;;;;;;19.30;16.65;;;;;;;;;;5056722;28;21010;-88
2021/01/04 12:50:03;;;;;;;19.15;15.90;;;;;;;;;;5056749;28;20694;-85
2021/01/04 12:52:29;;;;;;;21.03;17.83;;;;;;;;;;5080954;28;20471;-85
2021/01/04 12:54:55;;;;;;;20.02;17.42;;;;;;;;;;5075267;28;20369;-91
2021/01/04 12:57:24;;;;;;;18.88;16.33;;;;;;;;;;5046687;28;20386;-84
2021/01/04 12:59:50;;;;;;;18.65;16.30;;;;;;;;;;5055360;28;20385;-85
2021/01/04 13:02:18;;;;;;;20.17;17.30;;;;;;;;;;5089497;28;20364;-83
2021/01/04 13:04:51;;;;;;;20.13;17.05;;;;;;;;;;5081643;28;20368;-86
2021/01/04 13:07:19;;;;;;;20.58;17.90;;;;;;;;;;5069562;28;20778;-83
2021/01/04 13:09:47;;;;;;;23.60;18.70;;;;;;;;;;5049939;28;20383;-88
2021/01/04 13:12:13;;;;;;;22.30;17.73;;;;;;;;;;5061350;28;20474;-86
2021/01/04 13:14:39;;;;;;;20.85;17.65;;;;;;;;;;5058376;28;20373;-88
2021/01/04 13:17:05;;;;;;;22.92;18.73;;;;;;;;;;5072793;28;20459;-88
2021/01/04 13:19:31;;;;;;;21.40;18.17;;;;;;;;;;5095588;28;20384;-86
2021/01/04 13:21:59;;;;;;;21.25;17.98;;;;;;;;;;5063831;28;20361;-85
2021/01/04 13:24:26;;;;;;;23.42;19.63;;;;;;;;;;5077163;28;20372;-87
2021/01/04 13:26:53;;;;;;;24.75;19.95;;;;;;;;;;5071811;28;20392;-87
2021/01/04 13:29:22;;;;;;;25.37;19.83;;;;;;;;;;5068078;28;20380;-85
2021/01/04 13:31:48;;;;;;;23.95;20.63;;;;;;;;;;5060691;28;20501;-84
2021/01/04 13:34:15;;;;;;;28.65;22.00;;;;;;;;;;5061422;28;20348;-83
2021/01/04 13:36:49;;;;;;;22.52;18.95;;;;;;;;;;5054086;28;20386;-84
2021/01/04 13:39:15;;;;;;;24.83;19.92;;;;;;;;;;5042834;28;20378;-87
2021/01/04 13:41:43;;;;;;;25.63;20.17;;;;;;;;;;5056293;28;20382;-83
2021/01/04 13:44:09;;;;;;;25.15;19.45;;;;;;;;;;5050631;28;20405;-82
2021/01/04 13:46:35;;;;;;;29.53;21.07;;;;;;;;;;5055587;28;20571;-86
2021/01/04 13:49:02;;;;;;;26.83;20.77;;;;;;;;;;5055602;28;20384;-84
2021/01/04 13:51:28;;;;;;;28.65;20.85;;;;;;;;;;5059248;28;20389;-82
2021/01/04 13:53:55;;;;;;;26.20;19.63;;;;;;;;;;5070718;28;20354;-82
2021/01/04 13:56:21;;;;;;;27.27;21.10;;;;;;;;;;5079626;28;20370;-82
2021/01/04 13:58:47;;;;;;;24.83;19.97;;;;;;;;;;5074546;28;20369;-80
2021/01/04 14:01:13;;;;;;;25.20;20.02;;;;;;;;;;5056439;28;20778;-88
2021/01/04 14:03:40;;;;;;;27.73;21.67;;;;;;;;;;5058148;28;20385;-85
2021/01/04 14:06:06;;;;;;;28.50;21.67;;;;;;;;;;5085229;28;20353;-86
2021/01/04 14:08:35;;;;;;;27.33;21.30;;;;;;;;;;5057327;28;20399;-87
2021/01/04 14:11:01;;;;;;;29.90;22.05;;;;;;;;;;5064202;28;20374;-86
2021/01/04 14:13:27;;;;;;;32.58;23.52;;;;;;;;;;5056069;28;20354;-85
2021/01/04 14:15:53;;;;;;;30.98;22.95;;;;;;;;;;5056634;28;20728;-87
2021/01/04 14:18:20;;;;;;;30.35;22.17;;;;;;;;;;5054026;28;20374;-86
2021/01/04 14:20:48;;;;;;;28.50;20.80;;;;;;;;;;5054226;28;20404;-86
2021/01/04 14:23:15;;;;;;;27.42;21.17;;;;;;;;;;5052933;28;20374;-87
2021/01/04 14:25:44;;;;;;;27.65;21.23;;;;;;;;;;5055678;28;20426;-88
2021/01/04 14:28:10;;;;;;;27.33;20.53;;;;;;;;;;5057577;28;20496;-89
2021/01/04 14:30:55;;;;;;;30.13;22.70;;;;;;;;;;5058702;28;20405;-87
2021/01/04 14:33:21;;;;;;;27.33;21.47;;;;;;;;;;5056423;28;20378;-86
2021/01/04 14:35:56;;;;;;;28.88;21.55;;;;;;;;;;5058054;28;20812;-87
2021/01/04 14:38:22;;;;;;;29.85;22.70;;;;;;;;;;5057712;28;20397;-87
2021/01/04 14:40:49;;;;;;;30.67;23.23;;;;;;;;;;5052363;28;20395;-88
2021/01/04 14:43:20;;;;;;;30.83;21.95;;;;;;;;;;5077378;28;20394;-86